Time;durP1;ratioP1;P1;durP2;ratioP2;P2;SDS_P1;SDS_P2;PMS_P1;PMS_P2;Temp;Humidity;BMP_temperature;BMP_pressure;BME280_temperature;BME280_humidity;BME280_pressure;Samples;Min_cycle;Max_cycle;Signal;HPM_P1;HPM_P2
2022/10/24 00:00:54;;;;;;;8.90;5.33;;;;;;;13.45;73.82;99517.23;1735463;82;21009;-41
2022/10/24 00:03:21;;;;;;;7.42;4.72;;;;;;;13.35;74.04;99522.79;1735083;82;21007;-41
2022/10/24 00:05:48;;;;;;;6.87;4.83;;;;;;;13.27;74.35;99519.77;1734990;82;21245;-41
2022/10/24 00:08:16;;;;;;;6.75;4.75;;;;;;;13.28;74.48;99521.91;1734932;82;21336;-41
2022/10/24 00:10:46;;;;;;;6.20;4.92;;;;;;;13.29;74.55;99525.63;1735271;82;20966;-41
2022/10/24 00:13:15;;;;;;;7.90;4.83;;;;;;;13.25;74.66;99522.09;1735104;82;20973;-41
2022/10/24 00:15:45;;;;;;;9.27;5.00;;;;;;;13.18;74.79;99527.45;1735209;81;21484;-41
2022/10/24 00:18:12;;;;;;;7.97;4.67;;;;;;;13.11;74.96;99531.47;1735368;82;21741;-41
2022/10/24 00:20:39;;;;;;;7.72;4.75;;;;;;;13.08;75.05;99529.44;1735083;82;21005;-41
2022/10/24 00:23:08;;;;;;;10.28;5.00;;;;;;;13.07;75.11;99534.67;1734885;82;20969;-41
2022/10/24 00:25:35;;;;;;;5.72;4.65;;;;;;;13.02;75.36;99539.11;1735078;82;20966;-41
2022/10/24 00:28:02;;;;;;;8.65;5.28;;;;;;;12.97;75.39;99538.08;1734994;82;21081;-41
2022/10/24 00:30:29;;;;;;;8.13;4.53;;;;;;;12.94;75.39;99532.00;1734882;82;23174;-41
2022/10/24 00:32:57;;;;;;;9.45;5.40;;;;;;;12.93;75.37;99533.15;1734874;82;21002;-41
2022/10/24 00:35:24;;;;;;;7.75;4.65;;;;;;;12.93;75.41;99533.94;1734917;82;20957;-41
2022/10/24 00:37:52;;;;;;;8.45;4.75;;;;;;;12.90;75.46;99531.17;1734833;82;21577;-41
2022/10/24 00:40:19;;;;;;;9.95;5.35;;;;;;;12.86;75.46;99529.00;1734948;82;20986;-41
2022/10/24 00:42:47;;;;;;;8.68;5.30;;;;;;;12.82;75.42;99529.53;1735011;82;21238;-41
2022/10/24 00:45:37;;;;;;;7.08;5.33;;;;;;;12.83;75.47;99524.30;1734913;82;20883;-41
2022/10/24 00:48:18;;;;;;;6.85;5.00;;;;;;;12.89;75.38;99526.31;1735127;82;21503;-41
2022/10/24 00:50:45;;;;;;;11.68;5.50;;;;;;;12.84;75.29;99529.93;1716819;82;20998;-41
2022/10/24 00:53:13;;;;;;;8.48;5.30;;;;;;;12.78;75.38;99525.98;1734984;82;21464;-41
2022/10/24 00:55:43;;;;;;;8.48;4.85;;;;;;;12.78;75.47;99521.91;1735027;82;22044;-41
2022/10/24 00:58:09;;;;;;;12.60;5.35;;;;;;;12.84;75.33;99522.55;1735624;81;20966;-41
2022/10/24 01:00:36;;;;;;;10.10;5.45;;;;;;;12.94;75.15;99527.91;1735158;82;21080;-41
2022/10/24 01:03:03;;;;;;;7.45;4.87;;;;;;;12.93;74.96;99531.22;1735100;82;21045;-41
2022/10/24 01:05:38;;;;;;;10.45;4.90;;;;;;;12.91;74.96;99522.66;1735134;82;21052;-41
2022/10/24 01:08:31;;;;;;;8.63;4.33;;;;;;;12.93;74.83;99527.13;1735155;82;21364;-41
2022/10/24 01:11:15;;;;;;;8.70;5.22;;;;;;;12.95;74.72;99519.97;1735283;82;21009;-41
2022/10/24 01:14:14;;;;;;;8.33;5.30;;;;;;;12.91;74.67;99520.50;1735160;82;21012;-41
2022/10/24 01:17:13;;;;;;;11.33;5.62;;;;;;;12.83;74.85;99522.95;1735085;82;20978;-41
2022/10/24 01:19:52;;;;;;;8.23;5.73;;;;;;;12.73;75.09;99531.75;1730772;82;21520;-41
2022/10/24 01:22:22;;;;;;;8.23;5.58;;;;;;;12.69;75.39;99532.26;1734371;82;21519;-41
2022/10/24 01:25:18;;;;;;;9.70;5.50;;;;;;;12.75;75.34;99523.42;1734999;82;20966;-41
2022/10/24 01:28:02;;;;;;;10.20;5.90;;;;;;;12.79;75.21;99532.98;1734976;82;20926;-41
2022/10/24 01:30:33;;;;;;;9.70;5.53;;;;;;;12.75;75.38;99536.23;1734894;82;21022;-41
2022/10/24 01:33:25;;;;;;;7.75;4.87;;;;;;;12.72;75.39;99527.46;1735071;82;21295;-41
2022/10/24 01:36:03;;;;;;;10.00;4.65;;;;;;;12.72;75.42;99524.17;1734249;82;21235;-41
2022/10/24 01:38:49;;;;;;;11.85;5.42;;;;;;;12.76;75.23;99528.28;1734058;82;21477;-41
2022/10/24 01:41:20;;;;;;;11.15;5.55;;;;;;;12.74;75.16;99528.64;1734890;82;21064;-41
2022/10/24 01:43:52;;;;;;;12.50;5.75;;;;;;;12.66;75.42;99520.20;1735195;82;20986;-41
2022/10/24 01:46:23;;;;;;;10.82;6.20;;;;;;;12.62;75.50;99525.59;1734544;82;21467;-41
2022/10/24 01:48:55;;;;;;;12.13;5.33;;;;;;;12.60;75.61;99520.30;1735220;82;21092;-41
2022/10/24 01:51:23;;;;;;;11.63;5.47;;;;;;;12.58;75.53;99522.63;1732579;82;20939;-41
2022/10/24 01:53:50;;;;;;;10.18;5.50;;;;;;;12.57;75.65;99521.05;1734997;82;20907;-41
2022/10/24 01:56:16;;;;;;;10.50;5.95;;;;;;;12.52;75.90;99518.08;1734753;82;21010;-41
2022/10/24 01:58:44;;;;;;;10.82;5.45;;;;;;;12.46;76.03;99518.18;1734889;82;21034;-42
2022/10/24 02:01:18;;;;;;;10.72;5.33;;;;;;;12.45;76.01;99515.25;1734812;82;21548;-41
2022/10/24 02:03:49;;;;;;;9.63;5.78;;;;;;;12.45;76.03;99519.90;1734879;82;20930;-41
2022/10/24 02:06:29;;;;;;;11.55;6.03;;;;;;;12.43;76.19;99525.72;1734839;82;20966;-41
2022/10/24 02:08:59;;;;;;;10.50;5.78;;;;;;;12.40;76.41;99523.72;1735117;82;21598;-41
2022/10/24 02:11:25;;;;;;;8.78;5.55;;;;;;;12.35;76.50;99521.89;1735052;82;21033;-41
2022/10/24 02:14:01;;;;;;;10.50;5.65;;;;;;;12.32;76.60;99522.63;1735137;82;20995;-41
2022/10/24 02:16:28;;;;;;;8.80;5.92;;;;;;;12.35;76.65;99526.75;1734782;82;20977;-41
2022/10/24 02:18:55;;;;;;;12.95;6.30;;;;;;;12.38;76.68;99522.53;1738533;82;21499;-41
2022/10/24 02:21:49;;;;;;;9.38;5.85;;;;;;;12.38;76.77;99520.60;1735153;82;20966;-41
2022/10/24 02:24:23;;;;;;;10.38;5.72;;;;;;;12.34;76.80;99515.70;1735087;82;20997;-41
2022/10/24 02:27:01;;;;;;;9.93;6.08;;;;;;;12.30;76.90;99516.20;1735182;82;21207;-41
2022/10/24 02:29:48;;;;;;;10.88;6.47;;;;;;;12.34;76.98;99520.34;1735026;82;21254;-41
2022/10/24 02:32:24;;;;;;;11.90;6.12;;;;;;;12.36;77.09;99524.83;1735093;82;21025;-41
2022/10/24 02:34:50;;;;;;;9.63;6.55;;;;;;;12.32;77.19;99514.48;1735160;82;21028;-41
2022/10/24 02:37:17;;;;;;;9.68;5.95;;;;;;;12.28;77.29;99508.21;1735044;82;20978;-41
2022/10/24 02:39:46;;;;;;;9.68;6.08;;;;;;;12.26;77.48;99518.08;1735152;82;21128;-41
2022/10/24 02:42:14;;;;;;;8.65;6.00;;;;;;;12.35;77.42;99519.95;1734906;82;20934;-41
2022/10/24 02:44:41;;;;;;;8.78;6.33;;;;;;;12.39;77.27;99520.03;1730573;82;21045;-41
2022/10/24 02:47:10;;;;;;;11.73;7.28;;;;;;;12.36;77.38;99522.89;1735290;82;21571;-41
2022/10/24 02:49:39;;;;;;;9.30;6.62;;;;;;;12.34;77.41;99523.06;1735227;82;21009;-41
2022/10/24 02:52:05;;;;;;;11.97;6.58;;;;;;;12.32;77.46;99528.86;1735144;82;21113;-41
2022/10/24 02:54:32;;;;;;;10.68;7.00;;;;;;;12.37;77.51;99526.39;1734851;82;21037;-41
2022/10/24 02:57:01;;;;;;;11.85;7.45;;;;;;;12.44;77.46;99529.98;1734949;82;21034;-41
2022/10/24 02:59:28;;;;;;;11.75;7.12;;;;;;;12.47;77.57;99531.99;1738245;82;21021;-41
2022/10/24 03:01:55;;;;;;;12.70;6.85;;;;;;;12.49;77.37;99533.75;1749015;82;21534;-41
2022/10/24 03:04:23;;;;;;;7.25;6.37;;;;;;;12.50;77.29;99537.25;1748889;82;21137;-41
2022/10/24 03:06:50;;;;;;;11.15;6.42;;;;;;;12.48;77.26;99533.56;1748774;82;21033;-41
2022/10/24 03:09:17;;;;;;;11.03;7.10;;;;;;;12.48;77.47;99536.28;1748823;82;21012;-41
2022/10/24 03:13:49;;;;;;;9.48;7.33;;;;;;;12.49;77.64;99528.31;1797222;79;22641;-41
2022/10/24 03:16:16;;;;;;;10.25;7.15;;;;;;;12.37;77.89;99533.98;1738057;81;21021;-41
2022/10/24 03:18:42;;;;;;;11.85;7.53;;;;;;;12.36;77.92;99537.84;1757047;81;22312;-41
2022/10/24 03:21:09;;;;;;;8.88;7.15;;;;;;;12.38;78.01;99539.63;1757000;81;21542;-41
2022/10/24 03:23:36;;;;;;;10.85;7.58;;;;;;;12.39;78.15;99539.81;1757276;81;21571;-41
2022/10/24 03:26:02;;;;;;;10.45;7.08;;;;;;;12.38;78.09;99542.92;1757306;81;21000;-41
2022/10/24 03:28:30;;;;;;;10.90;7.45;;;;;;;12.34;78.04;99542.88;1757045;81;21691;-41
2022/10/24 03:30:56;;;;;;;11.12;7.80;;;;;;;12.33;78.01;99543.23;1757127;81;21233;-41
2022/10/24 03:33:25;;;;;;;9.43;7.55;;;;;;;12.33;78.16;99545.95;1756945;81;21517;-41
2022/10/24 03:35:54;;;;;;;9.58;7.75;;;;;;;12.29;78.28;99545.91;1757069;81;21010;-41
2022/10/24 03:38:21;;;;;;;12.60;7.13;;;;;;;12.22;78.40;99548.51;1757149;81;21015;-41
2022/10/24 03:40:49;;;;;;;8.20;6.80;;;;;;;12.17;78.65;99554.25;1756985;81;21016;-41
2022/10/24 03:43:16;;;;;;;12.13;6.50;;;;;;;12.18;78.63;99555.26;1757272;81;21076;-41
2022/10/24 03:45:43;;;;;;;9.58;7.10;;;;;;;12.19;78.72;99554.69;1756959;81;20934;-41
2022/10/24 03:48:10;;;;;;;8.85;7.30;;;;;;;12.15;78.89;99554.61;1757118;81;21035;-41
2022/10/24 03:50:37;;;;;;;9.95;6.60;;;;;;;12.14;79.00;99551.70;1757136;81;20968;-41
2022/10/24 03:53:04;;;;;;;10.38;6.62;;;;;;;12.15;79.09;99549.17;1757095;81;21039;-41
2022/10/24 03:55:31;;;;;;;10.08;6.42;;;;;;;12.20;79.12;99549.44;1757024;81;21274;-41
2022/10/24 03:57:57;;;;;;;10.55;7.33;;;;;;;12.20;79.22;99543.43;1723453;83;20976;-41
2022/10/24 04:00:27;;;;;;;9.00;6.83;;;;;;;12.18;79.39;99547.11;1723420;83;20968;-41
2022/10/24 04:02:53;;;;;;;12.80;6.37;;;;;;;12.18;79.47;99552.54;1723581;83;20945;-41
2022/10/24 04:05:20;;;;;;;11.20;7.15;;;;;;;12.22;79.42;99552.59;1723574;83;21064;-41
2022/10/24 04:07:47;;;;;;;10.40;7.40;;;;;;;12.27;79.55;99552.84;1723617;83;21308;-41
2022/10/24 04:10:14;;;;;;;12.47;8.40;;;;;;;12.27;79.74;99562.36;1723558;83;20956;-41
2022/10/24 04:12:41;;;;;;;9.48;7.78;;;;;;;12.25;79.86;99553.20;1720495;83;20941;-41
2022/10/24 04:15:09;;;;;;;11.68;7.75;;;;;;;12.26;79.98;99553.42;1716103;83;20979;-41
2022/10/24 04:17:37;;;;;;;12.43;8.20;;;;;;;12.29;80.09;99554.06;1716208;83;22236;-41
2022/10/24 04:20:06;;;;;;;12.45;8.80;;;;;;;12.32;80.21;99556.05;1716134;83;21136;-41
2022/10/24 04:22:33;;;;;;;11.93;8.50;;;;;;;12.31;80.44;99557.19;1715944;83;20985;-41
2022/10/24 04:25:00;;;;;;;12.82;8.60;;;;;;;12.37;80.40;99557.66;1715632;83;20956;-41
2022/10/24 04:27:27;;;;;;;15.03;9.20;;;;;;;12.43;80.26;99563.00;1715476;83;20984;-41
2022/10/24 04:29:54;;;;;;;14.60;9.53;;;;;;;12.47;80.24;99555.11;1715801;83;21032;-41
2022/10/24 04:32:20;;;;;;;16.73;9.95;;;;;;;12.51;80.21;99560.02;1715464;83;21150;-41
2022/10/24 04:34:49;;;;;;;12.78;9.85;;;;;;;12.55;80.03;99557.33;1715479;83;21003;-41
2022/10/24 04:37:16;;;;;;;14.15;9.73;;;;;;;12.54;79.98;99554.40;1715610;83;21024;-41
2022/10/24 04:39:42;;;;;;;12.85;10.20;;;;;;;12.60;79.72;99557.80;1715544;83;20976;-41
2022/10/24 04:42:11;;;;;;;14.98;11.05;;;;;;;12.61;79.64;99562.67;1751590;81;20990;-41
2022/10/24 04:44:39;;;;;;;16.40;11.03;;;;;;;12.59;79.76;99563.60;1751676;82;21935;-41
2022/10/24 04:47:06;;;;;;;17.27;10.82;;;;;;;12.56;79.86;99564.34;1751417;82;21047;-41
2022/10/24 04:49:33;;;;;;;13.35;10.03;;;;;;;12.56;79.87;99569.79;1751391;82;21069;-41
2022/10/24 04:52:00;;;;;;;16.87;10.95;;;;;;;12.62;79.72;99571.05;1751366;82;21444;-41
2022/10/24 04:54:27;;;;;;;16.20;10.70;;;;;;;12.68;79.59;99576.95;1745985;82;21457;-41
2022/10/24 04:56:53;;;;;;;15.88;11.60;;;;;;;12.69;79.54;99577.92;1751466;82;21238;-41
2022/10/24 04:59:20;;;;;;;15.40;11.40;;;;;;;12.68;79.53;99575.02;1751430;82;20949;-41
2022/10/24 05:01:47;;;;;;;14.50;10.72;;;;;;;12.67;79.50;99584.33;1751447;82;20989;-41
2022/10/24 05:04:14;;;;;;;17.05;11.90;;;;;;;12.72;79.36;99581.87;1751419;82;21350;-41
2022/10/24 05:06:42;;;;;;;19.30;11.75;;;;;;;12.75;79.21;99582.48;1751371;82;21028;-41
2022/10/24 05:09:09;;;;;;;19.95;12.07;;;;;;;12.71;79.22;99584.38;1751266;82;23138;-41
2022/10/24 05:11:36;;;;;;;16.07;11.25;;;;;;;12.69;79.41;99589.37;1751339;82;21527;-41
2022/10/24 05:14:05;;;;;;;13.55;10.85;;;;;;;12.72;79.37;99591.38;1755738;81;21495;-41
2022/10/24 05:16:32;;;;;;;15.45;12.58;;;;;;;12.77;79.27;99589.70;1756666;81;20977;-41
2022/10/24 05:19:00;;;;;;;19.05;12.88;;;;;;;12.79;79.12;99584.66;1756726;81;20965;-41
2022/10/24 05:21:28;;;;;;;14.10;11.50;;;;;;;12.77;79.21;99590.49;1756705;81;21234;-41
2022/10/24 05:23:55;;;;;;;16.62;11.45;;;;;;;12.82;79.15;99594.83;1756582;81;21058;-41
2022/10/24 05:26:22;;;;;;;17.00;11.18;;;;;;;12.90;78.99;99594.55;1756535;81;21064;-41
2022/10/24 05:28:50;;;;;;;16.42;11.83;;;;;;;13.00;78.73;99599.92;1756741;81;20925;-41
2022/10/24 05:31:16;;;;;;;18.90;11.97;;;;;;;13.05;78.63;99599.60;1756578;81;21506;-41
2022/10/24 05:33:43;;;;;;;15.30;11.22;;;;;;;13.06;78.38;99600.60;1756691;81;21148;-41
2022/10/24 05:36:10;;;;;;;16.07;11.10;;;;;;;13.11;78.15;99595.98;1756650;81;20960;-41
2022/10/24 05:38:37;;;;;;;15.03;11.28;;;;;;;13.16;77.77;99596.47;1756869;81;20965;-41
2022/10/24 05:41:04;;;;;;;19.95;12.33;;;;;;;13.16;77.57;99592.39;1756529;81;21399;-41
2022/10/24 05:43:31;;;;;;;16.15;11.95;;;;;;;13.15;77.72;99596.83;1756638;81;20929;-41
2022/10/24 05:45:57;;;;;;;16.10;11.75;;;;;;;13.14;77.63;99593.89;1756777;81;21144;-41
2022/10/24 05:48:25;;;;;;;18.27;11.03;;;;;;;13.17;77.60;99598.63;1756539;81;20956;-41
2022/10/24 05:50:56;;;;;;;20.35;12.63;;;;;;;13.21;77.45;99598.08;1756791;81;20996;-41
2022/10/24 05:53:25;;;;;;;17.90;12.23;;;;;;;13.24;77.24;99603.56;1756680;81;20977;-41
2022/10/24 05:55:52;;;;;;;20.20;13.30;;;;;;;13.22;77.44;99602.34;1756699;81;21545;-41
2022/10/24 05:58:21;;;;;;;20.40;11.55;;;;;;;13.22;77.42;99603.14;1756635;81;21539;-41
2022/10/24 06:00:49;;;;;;;21.82;12.50;;;;;;;13.21;77.39;99605.67;1756759;81;20949;-41
2022/10/24 06:03:16;;;;;;;16.25;11.45;;;;;;;13.27;77.39;99610.98;1756719;81;20925;-41
2022/10/24 06:05:44;;;;;;;19.27;12.37;;;;;;;13.34;77.24;99613.01;1756597;81;21027;-41
2022/10/24 06:08:11;;;;;;;16.97;12.63;;;;;;;13.35;77.34;99610.50;1756832;81;21084;-41
2022/10/24 06:10:39;;;;;;;16.80;11.50;;;;;;;13.36;77.29;99621.00;1756680;81;21243;-41
2022/10/24 06:13:07;;;;;;;17.52;10.93;;;;;;;13.35;77.28;99612.65;1749674;81;21001;-41
2022/10/24 06:15:35;;;;;;;27.82;13.90;;;;;;;13.39;77.06;99615.41;1734944;82;20934;-41
2022/10/24 06:18:04;;;;;;;21.52;12.93;;;;;;;13.43;76.98;99630.63;1734967;82;20977;-41
2022/10/24 06:20:31;;;;;;;21.62;12.18;;;;;;;13.43;77.19;99618.95;1735065;82;21002;-41
2022/10/24 06:22:58;;;;;;;20.45;12.07;;;;;;;13.46;77.16;99626.36;1735001;82;21940;-41
2022/10/24 06:25:25;;;;;;;20.48;11.73;;;;;;;13.45;76.91;99622.09;1734920;82;20966;-41
2022/10/24 06:27:52;;;;;;;22.52;12.58;;;;;;;13.48;76.92;99628.94;1734888;82;20993;-41
2022/10/24 06:30:19;;;;;;;24.95;12.58;;;;;;;13.48;76.86;99624.85;1734892;82;20978;-41
2022/10/24 06:32:46;;;;;;;22.35;12.82;;;;;;;13.43;76.94;99627.91;1734924;82;21084;-41
2022/10/24 06:35:14;;;;;;;24.02;13.32;;;;;;;13.36;77.19;99633.25;1734893;82;21144;-42
2022/10/24 06:37:42;;;;;;;20.10;11.80;;;;;;;13.32;77.31;99625.63;1735204;82;21196;-41
2022/10/24 06:40:10;;;;;;;25.08;14.75;;;;;;;13.36;77.36;99631.89;1734987;82;21001;-42
2022/10/24 06:42:37;;;;;;;22.60;13.50;;;;;;;13.37;77.34;99629.95;1734962;82;21002;-41
2022/10/24 06:45:06;;;;;;;23.85;14.18;;;;;;;13.36;77.47;99621.61;1734988;82;21547;-41
2022/10/24 06:47:34;;;;;;;24.45;13.22;;;;;;;13.34;77.57;99626.63;1735218;82;21587;-41
2022/10/24 06:50:01;;;;;;;22.55;12.40;;;;;;;13.38;77.81;99628.23;1734867;82;20973;-41
2022/10/24 06:52:28;;;;;;;23.67;13.40;;;;;;;13.47;77.55;99632.81;1734863;82;20969;-41
2022/10/24 06:54:55;;;;;;;24.60;14.78;;;;;;;13.54;77.37;99632.69;1735026;82;21484;-41
2022/10/24 06:57:22;;;;;;;23.65;14.30;;;;;;;13.52;77.31;99637.72;1734731;82;21543;-41
2022/10/24 06:59:48;;;;;;;25.72;14.20;;;;;;;13.52;77.44;99637.14;1734941;82;21123;-41
2022/10/24 07:02:17;;;;;;;23.92;13.43;;;;;;;13.54;77.37;99631.33;1734732;82;21532;-41
2022/10/24 07:04:46;;;;;;;22.98;13.68;;;;;;;13.61;77.14;99636.27;1734853;82;20942;-41
2022/10/24 07:07:16;;;;;;;25.70;13.22;;;;;;;13.65;77.06;99643.89;1734889;82;20934;-41
2022/10/24 07:09:43;;;;;;;23.98;15.28;;;;;;;13.66;77.02;99638.66;1734861;82;21594;-41
2022/10/24 07:12:11;;;;;;;21.52;13.50;;;;;;;13.65;77.03;99641.77;1734943;82;21244;-41
2022/10/24 07:14:38;;;;;;;23.57;13.60;;;;;;;13.64;76.88;99640.20;1734747;82;21561;-41
2022/10/24 07:17:05;;;;;;;21.90;13.20;;;;;;;13.66;76.84;99647.41;1734886;82;20915;-42
2022/10/24 07:19:33;;;;;;;21.05;13.72;;;;;;;13.70;77.02;99641.44;1734943;82;20999;-41
2022/10/24 07:22:00;;;;;;;26.85;14.45;;;;;;;13.76;77.10;99639.93;1735046;82;21069;-41
2022/10/24 07:24:27;;;;;;;21.42;12.45;;;;;;;13.80;76.98;99640.74;1734833;82;23163;-41
2022/10/24 07:26:54;;;;;;;17.92;11.33;;;;;;;13.85;76.74;99643.13;1734941;82;20957;-41
2022/10/24 07:29:22;;;;;;;16.42;11.48;;;;;;;13.91;76.57;99638.92;1734990;82;21124;-42
2022/10/24 07:31:49;;;;;;;18.67;12.78;;;;;;;13.95;76.28;99637.00;1735042;82;20935;-41
2022/10/24 07:34:16;;;;;;;18.50;12.63;;;;;;;13.91;76.16;99641.06;1734971;82;21021;-42
2022/10/24 07:36:43;;;;;;;20.45;12.20;;;;;;;13.85;76.17;99636.32;1735023;82;21082;-41
2022/10/24 07:39:11;;;;;;;24.85;12.20;;;;;;;13.79;76.31;99635.11;1734815;82;21017;-41
2022/10/24 07:41:40;;;;;;;24.45;13.03;;;;;;;13.80;76.37;99640.74;1734983;82;21676;-41
2022/10/24 07:44:07;;;;;;;21.30;13.28;;;;;;;13.78;76.27;99646.59;1735036;82;20972;-41
2022/10/24 07:46:33;;;;;;;20.52;12.88;;;;;;;13.75;76.45;99642.44;1735222;82;21527;-41
2022/10/24 07:49:00;;;;;;;21.42;13.70;;;;;;;13.73;76.70;99646.92;1735134;82;21084;-41
2022/10/24 07:51:28;;;;;;;21.73;12.70;;;;;;;13.72;76.75;99648.65;1735027;82;20977;-41
2022/10/24 07:53:57;;;;;;;20.82;12.73;;;;;;;13.78;76.64;99653.97;1735079;82;21476;-41
2022/10/24 07:56:26;;;;;;;19.15;12.88;;;;;;;13.84;76.56;99652.48;1734987;82;20890;-41
2022/10/24 07:58:54;;;;;;;15.83;11.68;;;;;;;13.82;76.10;99645.25;1735017;82;21022;-41
2022/10/24 08:01:23;;;;;;;18.77;11.95;;;;;;;13.76;76.04;99644.80;1735288;82;21142;-41
2022/10/24 08:03:50;;;;;;;19.80;10.93;;;;;;;13.73;76.37;99636.02;1735677;82;21511;-41
2022/10/24 08:06:21;;;;;;;18.92;10.78;;;;;;;13.84;76.27;99640.23;1735268;82;20930;-41
2022/10/24 08:08:48;;;;;;;19.10;11.65;;;;;;;13.89;75.96;99647.46;1735586;82;20996;-41
2022/10/24 08:11:20;;;;;;;20.80;12.40;;;;;;;13.86;76.05;99646.07;1735118;82;21017;-41
2022/10/24 08:13:49;;;;;;;20.50;11.00;;;;;;;13.82;75.72;99643.89;1739322;81;20933;-41
2022/10/24 08:16:19;;;;;;;15.75;10.63;;;;;;;13.79;75.77;99640.56;1749240;82;21001;-42
2022/10/24 08:18:46;;;;;;;14.87;10.15;;;;;;;13.82;75.53;99638.44;1749464;82;20957;-41
2022/10/24 08:21:15;;;;;;;14.23;9.95;;;;;;;13.82;75.41;99643.89;1749153;82;21519;-41
2022/10/24 08:23:45;;;;;;;12.95;9.75;;;;;;;13.78;75.27;99650.67;1749282;82;20969;-41
2022/10/24 08:26:15;;;;;;;13.08;9.78;;;;;;;13.72;75.28;99648.65;1749204;82;21115;-42
2022/10/24 08:28:42;;;;;;;14.80;9.63;;;;;;;13.65;75.36;99651.31;1749320;82;20929;-41
2022/10/24 08:31:14;;;;;;;13.03;9.38;;;;;;;13.68;75.46;99662.81;1749305;82;20972;-41
2022/10/24 08:33:42;;;;;;;13.98;10.53;;;;;;;13.68;75.54;99656.00;1743217;82;20939;-42
2022/10/24 08:36:24;;;;;;;14.10;11.15;;;;;;;13.62;75.76;99655.55;1740295;82;21100;-41
2022/10/24 08:38:51;;;;;;;18.73;12.07;;;;;;;13.58;76.07;99661.54;1719198;83;21268;-41
2022/10/24 08:41:42;;;;;;;16.87;11.12;;;;;;;13.58;76.04;99653.94;1719086;83;21016;-41
2022/10/24 08:44:21;;;;;;;15.23;11.00;;;;;;;13.62;75.96;99651.46;1719347;83;20945;-41
2022/10/24 08:47:33;;;;;;;17.25;11.83;;;;;;;13.64;76.09;99652.46;1719424;83;20921;-42
2022/10/24 08:50:14;;;;;;;18.02;11.65;;;;;;;13.66;76.24;99655.00;1719440;83;21605;-41
2022/10/24 08:52:52;;;;;;;12.80;10.48;;;;;;;13.65;76.19;99656.77;1719225;83;21146;-41
2022/10/24 08:55:30;;;;;;;14.30;10.50;;;;;;;13.66;76.13;99656.94;1718866;83;21060;-41
2022/10/24 08:57:59;;;;;;;14.47;10.53;;;;;;;13.70;76.08;99663.23;1719215;83;20933;-41
2022/10/24 09:00:30;;;;;;;15.10;10.90;;;;;;;13.69;76.14;99669.27;1719420;83;21491;-41
2022/10/24 09:03:14;;;;;;;13.65;10.38;;;;;;;13.67;76.03;99663.39;1719348;83;21064;-41
2022/10/24 09:05:48;;;;;;;14.78;10.50;;;;;;;13.67;75.87;99663.39;1719569;82;23127;-41
2022/10/24 09:08:50;;;;;;;15.10;10.40;;;;;;;13.74;75.99;99658.61;1718783;83;20990;-41
2022/10/24 09:11:31;;;;;;;17.05;10.53;;;;;;;13.87;76.10;99665.36;1713106;83;21471;-41
2022/10/24 09:14:01;;;;;;;12.75;10.40;;;;;;;13.96;75.68;99663.69;1681094;83;21621;-41
2022/10/24 09:16:29;;;;;;;12.70;9.35;;;;;;;14.01;75.33;99670.95;1719217;83;21558;-41
2022/10/24 09:18:56;;;;;;;14.10;9.93;;;;;;;14.04;75.03;99667.47;1719012;83;21150;-41
2022/10/24 09:21:26;;;;;;;12.35;10.00;;;;;;;14.14;74.41;99668.73;1718952;83;21020;-41
2022/10/24 09:23:54;;;;;;;18.27;11.73;;;;;;;14.17;74.27;99670.14;1719234;83;21008;-41
2022/10/24 09:26:27;;;;;;;17.95;13.43;;;;;;;14.18;74.33;99667.63;1719186;83;21059;-41
2022/10/24 09:28:55;;;;;;;19.70;12.68;;;;;;;14.12;74.13;99663.67;1719091;83;21022;-42
2022/10/24 09:31:25;;;;;;;24.40;18.37;;;;;;;14.09;74.38;99661.67;1718970;83;21255;-41
2022/10/24 09:33:52;;;;;;;18.55;13.53;;;;;;;14.12;74.51;99652.77;1719096;83;21009;-42
2022/10/24 09:36:23;;;;;;;17.80;12.30;;;;;;;14.14;74.77;99653.16;1719062;83;20902;-41
2022/10/24 09:38:50;;;;;;;18.55;12.88;;;;;;;14.18;74.49;99651.27;1693148;83;20948;-41
2022/10/24 09:41:32;;;;;;;16.65;12.93;;;;;;;14.20;74.30;99654.38;1719129;83;21032;-41
2022/10/24 09:43:59;;;;;;;19.20;11.33;;;;;;;14.21;74.16;99661.98;1719260;83;21272;-41
2022/10/24 09:46:43;;;;;;;15.80;11.03;;;;;;;14.25;73.94;99664.95;1719037;83;21019;-41
2022/10/24 09:49:16;;;;;;;20.57;11.40;;;;;;;14.31;73.69;99673.57;1719100;83;20978;-42
2022/10/24 09:51:59;;;;;;;13.58;11.03;;;;;;;14.30;73.50;99681.55;1719243;83;21009;-41
2022/10/24 09:54:29;;;;;;;15.95;10.15;;;;;;;14.31;73.20;99676.30;1719095;83;21016;-41
2022/10/24 09:57:03;;;;;;;15.68;10.43;;;;;;;14.31;73.16;99678.45;1719302;83;21177;-41
2022/10/24 09:59:58;;;;;;;14.83;10.55;;;;;;;14.38;73.12;99666.08;1719173;83;21020;-41
2022/10/24 10:02:27;;;;;;;16.20;11.38;;;;;;;14.44;73.23;99670.00;1719103;83;21044;-42
2022/10/24 10:05:16;;;;;;;14.50;11.55;;;;;;;14.47;73.34;99663.80;1719375;83;21495;-41
2022/10/24 10:07:47;;;;;;;15.25;11.35;;;;;;;14.49;73.12;99662.83;1719248;83;20948;-41
2022/10/24 10:10:33;;;;;;;14.28;10.88;;;;;;;14.55;72.87;99659.96;1719762;83;21491;-41
2022/10/24 10:13:18;;;;;;;20.10;12.35;;;;;;;14.63;72.37;99661.57;1719195;83;20957;-41
2022/10/24 10:15:49;;;;;;;13.88;11.55;;;;;;;14.70;72.50;99652.08;1708201;83;20978;-42
2022/10/24 10:18:31;;;;;;;14.40;11.05;;;;;;;14.72;71.69;99655.98;1705472;83;20979;-42
2022/10/24 10:21:08;;;;;;;20.05;14.47;;;;;;;14.74;71.17;99642.75;1705604;83;21006;-41
2022/10/24 10:23:52;;;;;;;15.05;11.33;;;;;;;14.78;70.99;99649.59;1700587;83;21105;-41
2022/10/24 10:26:29;;;;;;;13.10;10.65;;;;;;;14.82;70.61;99655.85;1705553;84;21053;-42
2022/10/24 10:29:04;;;;;;;15.70;12.10;;;;;;;14.80;70.40;99652.73;1705551;84;21065;-41
2022/10/24 10:31:39;;;;;;;13.60;10.35;;;;;;;14.74;70.78;99646.06;1705668;84;21641;-41
2022/10/24 10:34:41;;;;;;;15.78;11.60;;;;;;;14.74;70.66;99652.31;1705616;84;21528;-41
2022/10/24 10:37:23;;;;;;;13.15;10.18;;;;;;;14.77;70.52;99661.09;1705645;84;21869;-41
2022/10/24 10:40:04;;;;;;;12.33;9.88;;;;;;;14.77;70.56;99660.30;1705689;83;21473;-42
2022/10/24 10:43:15;;;;;;;15.70;13.20;;;;;;;14.74;70.09;99651.52;1705439;83;20994;-42
2022/10/24 10:45:59;;;;;;;12.23;9.90;;;;;;;14.68;70.33;99651.67;1705411;83;20966;-41
2022/10/24 10:48:55;;;;;;;12.90;10.05;;;;;;;14.64;70.12;99650.86;1699704;83;21061;-41
2022/10/24 10:51:49;;;;;;;14.33;10.45;;;;;;;14.65;69.90;99647.77;1697237;84;23170;-42
2022/10/24 10:54:56;;;;;;;15.43;10.25;;;;;;;14.64;69.85;99639.95;1705532;84;21630;-42
2022/10/24 10:57:38;;;;;;;15.18;10.48;;;;;;;14.63;70.11;99639.74;1705410;83;21096;-41
2022/10/24 11:00:18;;;;;;;14.03;10.13;;;;;;;14.60;69.67;99633.11;1705632;84;21025;-41
2022/10/24 11:02:59;;;;;;;19.02;13.70;;;;;;;14.61;69.63;99636.63;1705223;83;21032;-41
2022/10/24 11:05:39;;;;;;;11.83;9.63;;;;;;;14.63;69.84;99636.44;1705753;84;21088;-41
2022/10/24 11:08:41;;;;;;;17.73;11.53;;;;;;;14.61;69.70;99627.86;1705854;84;21523;-42
2022/10/24 11:11:13;;;;;;;15.32;10.38;;;;;;;14.60;69.54;99625.50;1705421;84;20974;-41
2022/10/24 11:13:44;;;;;;;15.60;10.25;;;;;;;14.53;69.40;99625.44;1704749;83;21038;-41
2022/10/24 11:16:18;;;;;;;16.50;10.40;;;;;;;14.57;69.73;99624.91;1717496;83;20965;-42
2022/10/24 11:18:47;;;;;;;14.80;11.03;;;;;;;14.68;69.74;99624.38;1719253;83;21954;-42
2022/10/24 11:21:16;;;;;;;21.93;16.20;;;;;;;14.74;69.65;99619.56;1719275;83;21012;-42
2022/10/24 11:24:13;;;;;;;33.55;23.80;;;;;;;14.83;69.05;99627.98;1718952;83;21047;-42
2022/10/24 11:27:02;;;;;;;19.20;13.72;;;;;;;14.87;68.93;99631.51;1688789;84;20954;-41
2022/10/24 11:29:50;;;;;;;15.35;12.10;;;;;;;14.89;68.31;99640.11;1688775;85;21026;-42
2022/10/24 11:32:40;;;;;;;14.40;10.48;;;;;;;14.94;68.26;99636.45;1688715;85;21147;-41
2022/10/24 11:35:31;;;;;;;;;;;;;;;14.94;68.09;99634.30;1691200;85;21030;-42
2022/10/24 11:38:02;;;;;;;17.70;12.73;;;;;;;14.91;68.50;99631.73;1689203;85;20185;-42
2022/10/24 11:40:30;;;;;;;22.48;18.92;;;;;;;14.78;68.92;99621.72;1688574;84;21049;-42
2022/10/24 11:43:17;;;;;;;36.13;24.32;;;;;;;14.80;69.00;99619.98;1688953;85;20966;-42
2022/10/24 11:46:10;;;;;;;32.70;26.90;;;;;;;14.86;68.38;99620.41;1688804;84;21254;-41